createdAt,value
2017-11-23T00:01:58.442Z,99858.89
2017-11-23T00:04:31.841Z,99860.45
2017-11-23T00:07:05.806Z,99861.39
2017-11-23T00:09:37.285Z,99861.80
2017-11-23T00:12:10.097Z,99859.79
2017-11-23T00:14:42.990Z,99856.53
2017-11-23T00:17:14.786Z,99852.15
2017-11-23T00:19:47.118Z,99861.77
2017-11-23T00:22:20.757Z,99855.48
2017-11-23T00:24:52.117Z,99855.05
2017-11-23T00:27:23.561Z,99850.75
2017-11-23T00:29:55.002Z,99842.03
2017-11-23T00:32:26.546Z,99846.64
2017-11-23T00:34:57.901Z,99844.02
2017-11-23T00:37:29.859Z,99841.55
2017-11-23T00:40:05.738Z,99854.71
2017-11-23T00:42:37.140Z,99849.23
2017-11-23T00:45:09.984Z,99852.95
2017-11-23T00:47:41.982Z,99852.23
2017-11-23T00:50:17.253Z,99851.67
2017-11-23T00:52:48.841Z,99852.69
2017-11-23T00:55:20.681Z,99847.98
2017-11-23T00:57:52.041Z,99845.41
2017-11-23T01:00:25.444Z,99842.98
2017-11-23T01:02:57.606Z,99845.15
2017-11-23T01:05:29.957Z,99849.53
2017-11-23T01:08:02.576Z,99850.05
2017-11-23T01:10:34.204Z,99841.47
2017-11-23T01:13:06.508Z,99844.05
2017-11-23T01:15:38.762Z,99834.79
2017-11-23T01:18:14.471Z,99839.13
2017-11-23T01:20:46.850Z,99834.71
2017-11-23T01:23:19.116Z,99823.35
2017-11-23T01:25:50.714Z,99830.83
2017-11-23T01:28:25.366Z,99834.62
2017-11-23T01:30:56.697Z,99837.41
2017-11-23T01:33:29.733Z,99832.98
2017-11-23T01:36:02.326Z,99843.48
2017-11-23T01:38:34.908Z,99837.73
2017-11-23T01:41:06.521Z,99841.11
2017-11-23T01:43:38.810Z,99838.68
2017-11-23T01:46:17.778Z,99842.95
2017-11-23T01:48:50.196Z,99836.73
2017-11-23T01:51:21.603Z,99848.09
2017-11-23T01:53:53.030Z,99851.72
2017-11-23T01:56:25.635Z,99851.99
2017-11-23T01:58:57.135Z,99843.56
2017-11-23T02:01:28.892Z,99847.39
2017-11-23T02:04:04.053Z,99856.91
2017-11-23T02:06:35.908Z,99848.60
2017-11-23T02:09:08.112Z,99851.18
2017-11-23T02:11:40.702Z,99857.98
2017-11-23T02:14:12.893Z,99858.92
2017-11-23T02:16:44.331Z,99857.34
2017-11-23T02:19:17.668Z,99857.52
2017-11-23T02:21:49.181Z,99862.76
2017-11-23T02:24:21.910Z,99866.09
2017-11-23T02:26:53.681Z,99858.11
2017-11-23T02:29:25.208Z,99851.83
2017-11-23T02:31:57.464Z,99845.55
2017-11-23T02:34:30.263Z,99848.91
2017-11-23T02:37:02.862Z,99848.66
2017-11-23T02:39:34.682Z,99844.53
2017-11-23T02:42:10.236Z,99849.95
2017-11-23T02:44:41.618Z,99857.94
2017-11-23T02:47:13.091Z,99849.79
2017-11-23T02:49:44.700Z,99842.27
2017-11-23T02:52:18.782Z,99837.55
2017-11-23T02:54:50.502Z,99835.19
2017-11-23T02:57:24.685Z,99835.36
2017-11-23T02:59:56.148Z,99827.41
2017-11-23T03:02:27.488Z,99834.93
2017-11-23T03:04:58.994Z,99833.83
2017-11-23T03:07:32.267Z,99828.28
2017-11-23T03:12:42.582Z,99836.55
2017-11-23T03:15:14.680Z,99843.03
2017-11-23T03:17:46.040Z,99835.70
2017-11-23T03:20:20.027Z,99832.31
2017-11-23T03:22:51.360Z,99833.68
2017-11-23T03:25:23.486Z,99826.33
2017-11-23T03:27:54.787Z,99818.03
2017-11-23T03:30:26.698Z,99819.88
2017-11-23T03:32:58.046Z,99812.91
2017-11-23T03:35:29.356Z,99808.20
2017-11-23T03:38:02.669Z,99805.50
2017-11-23T03:40:34.376Z,99805.87
2017-11-23T03:43:06.663Z,99802.34
2017-11-23T03:45:38.305Z,99794.28
2017-11-23T03:48:12.173Z,99790.41
2017-11-23T03:50:43.520Z,99792.34
2017-11-23T03:53:16.600Z,99790.63
2017-11-23T03:55:47.925Z,99796.27
2017-11-23T03:58:20.829Z,99800.97
2017-11-23T04:00:52.200Z,99810.01
2017-11-23T04:03:24.009Z,99822.83
2017-11-23T04:05:55.509Z,99818.48
2017-11-23T04:08:28.161Z,99808.59
2017-11-23T04:10:59.794Z,99807.48
2017-11-23T04:13:31.103Z,99809.67
2017-11-23T04:16:07.584Z,99801.84
2017-11-23T04:18:38.931Z,99804.58
2017-11-23T04:21:10.461Z,99800.73
2017-11-23T04:23:43.089Z,99803.04
2017-11-23T04:26:21.359Z,99806.65
2017-11-23T04:28:52.750Z,99797.78
2017-11-23T04:31:25.783Z,99800.70
2017-11-23T04:33:57.349Z,99805.86
2017-11-23T04:36:29.057Z,99805.84
2017-11-23T04:39:00.506Z,99797.45
2017-11-23T04:41:32.598Z,99786.67
2017-11-23T04:44:05.559Z,99796.47
2017-11-23T04:46:37.154Z,99801.06
2017-11-23T04:49:08.797Z,99795.09
2017-11-23T04:51:40.348Z,99785.48
2017-11-23T04:54:15.360Z,99790.81
2017-11-23T04:56:47.011Z,99789.68
2017-11-23T04:59:19.731Z,99797.89
2017-11-23T05:01:51.090Z,99796.16
2017-11-23T05:04:23.397Z,99797.89
2017-11-23T05:06:54.724Z,99794.65
2017-11-23T05:09:26.017Z,99804.56
2017-11-23T05:11:57.965Z,99804.64
2017-11-23T05:14:30.640Z,99803.63
2017-11-23T05:17:02.575Z,99799.82
2017-11-23T05:19:34.918Z,99798.14
2017-11-23T05:22:07.236Z,99801.61
2017-11-23T05:24:38.612Z,99798.88
2017-11-23T05:29:40.313Z,99803.99
2017-11-23T05:32:14.249Z,99803.77
2017-11-23T05:34:45.854Z,99830.98
2017-11-23T05:37:17.507Z,99825.16
2017-11-23T05:39:48.867Z,99831.91
2017-11-23T05:45:22.453Z,99823.82
2017-11-23T05:47:53.793Z,99825.55
2017-11-23T05:50:25.152Z,99838.82
2017-11-23T05:52:56.565Z,99827.09
2017-11-23T05:55:28.866Z,99828.73
2017-11-23T05:58:00.467Z,99825.58
2017-11-23T06:00:31.837Z,99829.36
2017-11-23T06:03:03.646Z,99831.13
2017-11-23T06:05:34.990Z,99826.49
2017-11-23T06:08:11.167Z,99822.62
2017-11-23T06:10:42.533Z,99821.32
2017-11-23T06:13:14.258Z,99819.53
2017-11-23T06:15:45.867Z,99816.20
2017-11-23T06:18:21.899Z,99819.25
2017-11-23T06:20:53.312Z,99825.13
2017-11-23T06:23:24.870Z,99821.86
2017-11-23T06:25:56.191Z,99810.09
2017-11-23T06:28:27.624Z,99816.97
2017-11-23T06:31:01.015Z,99804.69
2017-11-23T06:33:36.257Z,99818.73
2017-11-23T06:38:32.455Z,99817.26
2017-11-23T06:41:04.925Z,99826.25
2017-11-23T06:43:36.239Z,99819.13
2017-11-23T06:46:14.037Z,99827.84
2017-11-23T06:48:45.422Z,99827.88
2017-11-23T06:51:17.768Z,99834.84
2017-11-23T06:53:50.276Z,99831.70
2017-11-23T06:56:22.596Z,99828.92
2017-11-23T06:58:53.938Z,99837.62
2017-11-23T07:01:27.108Z,99837.99
2017-11-23T07:03:58.397Z,99826.98
2017-11-23T07:06:29.725Z,99836.48
2017-11-23T07:09:01.638Z,99837.30
2017-11-23T07:11:34.080Z,99839.53
2017-11-23T07:14:08.370Z,99841.00
2017-11-23T07:16:42.110Z,99845.17
2017-11-23T07:19:13.922Z,99850.91
2017-11-23T07:21:45.260Z,99842.86
2017-11-23T07:24:19.943Z,99844.32
2017-11-23T07:26:51.556Z,99846.75
2017-11-23T07:29:23.633Z,99854.67
2017-11-23T07:31:55.161Z,99855.25
2017-11-23T07:34:44.918Z,99856.59
2017-11-23T07:37:16.526Z,99865.58
2017-11-23T07:39:47.891Z,99860.41
2017-11-23T07:42:28.993Z,99860.41
2017-11-23T07:45:01.549Z,99864.61
2017-11-23T07:47:34.076Z,99867.92
2017-11-23T07:52:45.356Z,99872.67
2017-11-23T07:55:17.141Z,99876.66
2017-11-23T07:57:48.942Z,99877.89
2017-11-23T08:00:24.501Z,99880.58
2017-11-23T08:02:55.881Z,99885.14
2017-11-23T08:05:27.905Z,99884.45
2017-11-23T08:07:59.849Z,99888.38
2017-11-23T08:10:36.261Z,99888.32
2017-11-23T08:13:08.861Z,99893.98
2017-11-23T08:15:40.299Z,99895.63
2017-11-23T08:18:14.486Z,99903.10
2017-11-23T08:20:46.055Z,99901.06
2017-11-23T08:23:17.761Z,99901.77
2017-11-23T08:25:49.095Z,99906.03
2017-11-23T08:28:21.784Z,99908.66
2017-11-23T08:30:53.844Z,99900.79
2017-11-23T08:33:25.226Z,99900.45
2017-11-23T08:35:57.457Z,99905.05
2017-11-23T08:38:29.788Z,99910.63
2017-11-23T08:41:02.069Z,99909.31
2017-11-23T08:43:36.485Z,99917.35
2017-11-23T08:46:11.980Z,99923.45
2017-11-23T08:48:45.702Z,99916.34
2017-11-23T08:51:17.889Z,99921.23
2017-11-23T08:53:49.238Z,99915.34
2017-11-23T08:56:23.207Z,99918.59
2017-11-23T08:58:55.480Z,99926.69
2017-11-23T09:01:34.106Z,99922.95
2017-11-23T09:04:13.740Z,99927.75
2017-11-23T09:06:45.200Z,99926.83
2017-11-23T09:09:16.826Z,99922.23
2017-11-23T09:11:48.560Z,99928.79
2017-11-23T09:14:22.964Z,99929.62
2017-11-23T09:16:54.300Z,99924.52
2017-11-23T09:19:26.331Z,99926.30
2017-11-23T09:21:57.697Z,99919.14
2017-11-23T09:24:39.262Z,99925.25
2017-11-23T09:27:10.646Z,99916.03
2017-11-23T09:29:42.017Z,99916.17
2017-11-23T09:32:24.910Z,99919.90
2017-11-23T09:34:56.568Z,99924.23
2017-11-23T09:37:29.218Z,99919.88
2017-11-23T09:42:39.314Z,99921.81
2017-11-23T09:45:10.653Z,99929.89
2017-11-23T09:47:42.290Z,99927.19
2017-11-23T09:50:16.893Z,99914.77
2017-11-23T09:52:49.230Z,99919.77
2017-11-23T09:55:21.686Z,99923.50
2017-11-23T09:57:53.184Z,99922.78
2017-11-23T10:00:24.660Z,99919.91
2017-11-23T10:02:56.346Z,99908.51
2017-11-23T10:05:27.728Z,99909.80
2017-11-23T10:07:59.062Z,99906.45
2017-11-23T10:10:31.765Z,99893.16
2017-11-23T10:13:03.614Z,99877.37
2017-11-23T10:15:49.430Z,99886.10
2017-11-23T10:18:20.877Z,99879.06
2017-11-23T10:20:52.512Z,99877.81
2017-11-23T10:23:25.794Z,99892.39
2017-11-23T10:25:57.234Z,99890.08
2017-11-23T10:28:29.905Z,99894.63
2017-11-23T10:31:01.659Z,99895.70
2017-11-23T10:33:34.263Z,99890.91
2017-11-23T10:36:16.029Z,99885.55
2017-11-23T10:38:47.384Z,99889.23
2017-11-23T10:41:19.033Z,99871.72
2017-11-23T10:43:50.679Z,99863.02
2017-11-23T10:46:26.264Z,99863.62
2017-11-23T10:48:57.946Z,99870.52
2017-11-23T10:51:30.603Z,99876.14
2017-11-23T10:54:06.405Z,99873.48
2017-11-23T10:56:38.710Z,99877.08
2017-11-23T10:59:10.058Z,99880.48
2017-11-23T11:01:41.505Z,99891.58
2017-11-23T11:04:14.854Z,99897.21
2017-11-23T11:06:47.830Z,99891.84
2017-11-23T11:09:21.281Z,99888.16
2017-11-23T11:11:52.732Z,99881.06
2017-11-23T11:14:24.934Z,99876.20
2017-11-23T11:16:56.273Z,99882.63
2017-11-23T11:19:28.352Z,99885.13
2017-11-23T11:22:00.320Z,99887.60
2017-11-23T11:24:33.455Z,99878.41
2017-11-23T11:27:04.791Z,99891.91
2017-11-23T11:29:37.029Z,99877.36
2017-11-23T11:32:14.827Z,99866.59
2017-11-23T11:34:46.171Z,99881.91
2017-11-23T11:37:17.679Z,99864.25
2017-11-23T11:39:49.058Z,99867.45
2017-11-23T11:42:22.401Z,99865.30
2017-11-23T11:44:54.042Z,99864.91
2017-11-23T11:47:25.390Z,99872.19
2017-11-23T11:49:56.747Z,99884.86
2017-11-23T11:52:28.546Z,99867.39
2017-11-23T11:55:00.226Z,99855.83
2017-11-23T11:57:31.738Z,99852.50
2017-11-23T12:00:04.429Z,99854.23
2017-11-23T12:02:36.143Z,99856.03
2017-11-23T12:05:08.459Z,99850.50
2017-11-23T12:07:39.884Z,99855.54
2017-11-23T12:10:15.341Z,99850.26
2017-11-23T12:12:48.398Z,99868.64
2017-11-23T12:15:28.747Z,99865.86
2017-11-23T12:22:27.678Z,99856.27
2017-11-23T12:25:03.799Z,99849.61
2017-11-23T12:27:44.777Z,99842.88
2017-11-23T12:30:21.300Z,99837.74
2017-11-23T12:32:52.656Z,99851.27
2017-11-23T12:38:12.914Z,99867.95
2017-11-23T12:40:44.358Z,99861.47
2017-11-23T12:43:16.328Z,99871.28
2017-11-23T12:45:47.727Z,99857.26
2017-11-23T12:48:21.854Z,99862.88
2017-11-23T12:50:53.613Z,99859.59
2017-11-23T12:53:24.931Z,99865.06
2017-11-23T12:55:56.245Z,99872.91
2017-11-23T12:58:28.195Z,99872.00
2017-11-23T13:00:59.545Z,99877.88
2017-11-23T13:03:31.941Z,99876.56
2017-11-23T13:06:14.815Z,99880.52
2017-11-23T13:08:47.014Z,99890.70
2017-11-23T13:11:19.273Z,99902.39
2017-11-23T13:13:51.866Z,99904.24
2017-11-23T13:16:23.789Z,99914.88
2017-11-23T13:18:55.142Z,99915.78
2017-11-23T13:21:29.212Z,99925.17
2017-11-23T13:24:03.725Z,99913.19
2017-11-23T13:26:36.744Z,99920.45
2017-11-23T13:29:08.343Z,99919.14
2017-11-23T13:31:39.683Z,99919.79
2017-11-23T13:34:20.788Z,99919.00
2017-11-23T13:36:52.254Z,99927.39
2017-11-23T13:39:23.905Z,99934.95
2017-11-23T13:41:56.198Z,99933.06
2017-11-23T13:44:28.886Z,99937.02
2017-11-23T13:47:01.420Z,99925.89
2017-11-23T13:49:32.948Z,99928.17
2017-11-23T13:52:09.367Z,99926.66
2017-11-23T13:54:41.391Z,99932.91
2017-11-23T13:57:13.245Z,99939.36
2017-11-23T13:59:44.861Z,99937.77
2017-11-23T14:02:21.420Z,99941.11
2017-11-23T14:04:52.994Z,99938.48
2017-11-23T14:07:24.678Z,99946.73
2017-11-23T14:09:56.749Z,99947.33
2017-11-23T14:12:29.067Z,99943.44
2017-11-23T14:15:00.520Z,99942.70
2017-11-23T14:17:32.860Z,99947.59
2017-11-23T14:20:07.206Z,99938.31
2017-11-23T14:22:41.304Z,99943.52
2017-11-23T14:25:12.696Z,99948.25
2017-11-23T14:27:44.973Z,99946.41
2017-11-23T14:30:19.725Z,99949.21
2017-11-23T14:32:51.061Z,99951.23
2017-11-23T14:35:22.749Z,99953.27
2017-11-23T14:37:54.141Z,99953.00
2017-11-23T14:40:25.466Z,99957.82
2017-11-23T14:42:57.666Z,99964.11
2017-11-23T14:45:29.116Z,99959.52
2017-11-23T14:48:00.649Z,99967.47
2017-11-23T14:50:33.415Z,99968.89
2017-11-23T14:53:04.920Z,99970.93
2017-11-23T14:55:36.716Z,99968.55
2017-11-23T14:58:13.222Z,99974.38
2017-11-23T15:00:45.255Z,99977.94
2017-11-23T15:03:16.783Z,99979.88
2017-11-23T15:05:49.365Z,99978.07
2017-11-23T15:08:22.622Z,99977.36
2017-11-23T15:10:54.080Z,99983.51
2017-11-23T15:13:27.197Z,99987.53
2017-11-23T15:15:59.784Z,99987.00
2017-11-23T15:18:31.745Z,99987.83
2017-11-23T15:21:04.095Z,99997.66
2017-11-23T15:23:37.963Z,99987.43
2017-11-23T15:26:13.665Z,99988.99
2017-11-23T15:28:44.974Z,99988.66
2017-11-23T15:31:16.413Z,99992.29
2017-11-23T15:33:48.036Z,99990.88
2017-11-23T15:36:22.744Z,99995.66
2017-11-23T15:38:54.567Z,99999.34
2017-11-23T15:41:28.186Z,99997.59
2017-11-23T15:43:59.541Z,100005.78
2017-11-23T15:46:30.922Z,100002.07
2017-11-23T15:49:04.320Z,100009.88
2017-11-23T15:51:38.414Z,100005.03
2017-11-23T15:54:15.806Z,100010.55
2017-11-23T15:56:47.153Z,100007.92
2017-11-23T15:59:19.405Z,100009.48
2017-11-23T16:01:53.898Z,100007.79
2017-11-23T16:04:26.553Z,100005.52
2017-11-23T16:06:58.144Z,100015.84
2017-11-23T16:09:29.696Z,100017.63
2017-11-23T16:12:03.256Z,100024.95
2017-11-23T16:14:34.634Z,100027.39
2017-11-23T16:17:08.078Z,100028.39
2017-11-23T16:19:39.732Z,100030.70
2017-11-23T16:22:12.717Z,100032.45
2017-11-23T16:24:45.023Z,100040.80
2017-11-23T16:27:17.555Z,100041.05
2017-11-23T16:29:49.265Z,100039.57
2017-11-23T16:32:23.773Z,100044.92
2017-11-23T16:34:55.204Z,100042.43
2017-11-23T16:37:29.505Z,100051.17
2017-11-23T16:40:02.675Z,100053.71
2017-11-23T16:42:38.073Z,100057.15
2017-11-23T16:45:13.525Z,100055.35
2017-11-23T16:47:49.235Z,100059.78
2017-11-23T16:50:25.248Z,100072.44
2017-11-23T16:53:00.888Z,100074.10
2017-11-23T16:55:36.661Z,100078.09
2017-11-23T16:58:21.206Z,100079.59
2017-11-23T17:00:54.242Z,100082.06
2017-11-23T17:03:28.394Z,100081.03
2017-11-23T17:06:05.558Z,100088.67
2017-11-23T17:08:38.205Z,100080.55
2017-11-23T17:11:13.917Z,100086.80
2017-11-23T17:13:50.901Z,100087.78
2017-11-23T17:16:25.849Z,100090.44
2017-11-23T17:18:58.332Z,100092.61
2017-11-23T17:21:31.308Z,100096.34
2017-11-23T17:24:06.409Z,100092.55
2017-11-23T17:26:39.590Z,100100.48
2017-11-23T17:29:11.542Z,100097.17
2017-11-23T17:31:46.863Z,100098.14
2017-11-23T17:34:24.165Z,100093.20
2017-11-23T17:36:55.547Z,100097.70
2017-11-23T17:39:27.177Z,100102.66
2017-11-23T17:41:59.035Z,100099.72
2017-11-23T17:44:31.544Z,100100.05
2017-11-23T17:47:03.893Z,100109.53
2017-11-23T17:49:36.031Z,100108.67
2017-11-23T17:52:16.002Z,100100.78
2017-11-23T17:54:49.131Z,100102.37
2017-11-23T17:57:22.449Z,100103.68
2017-11-23T17:59:54.621Z,100103.97
2017-11-23T18:02:25.967Z,100106.03
2017-11-23T18:04:57.580Z,100112.88
2017-11-23T18:07:29.362Z,100113.79
2017-11-23T18:10:03.142Z,100119.09
2017-11-23T18:12:34.753Z,100115.41
2017-11-23T18:15:06.824Z,100122.68
2017-11-23T18:17:38.160Z,100121.19
2017-11-23T18:20:11.862Z,100116.14
2017-11-23T18:22:43.292Z,100114.27
2017-11-23T18:25:15.564Z,100109.44
2017-11-23T18:27:47.153Z,100116.39
2017-11-23T18:30:23.607Z,100120.41
2017-11-23T18:32:54.964Z,100128.91
2017-11-23T18:35:28.929Z,100123.16
2017-11-23T18:38:07.196Z,100129.96
2017-11-23T18:40:39.204Z,100133.11
2017-11-23T18:43:13.695Z,100131.84
2017-11-23T18:45:47.128Z,100130.98
2017-11-23T18:48:23.898Z,100129.66
2017-11-23T18:50:55.304Z,100134.36
2017-11-23T18:53:27.972Z,100129.49
2017-11-23T18:56:00.409Z,100128.96
2017-11-23T18:58:32.040Z,100129.81
2017-11-23T19:01:06.141Z,100131.44
2017-11-23T19:03:38.694Z,100136.63
2017-11-23T19:06:18.321Z,100139.03
2017-11-23T19:08:49.923Z,100144.59
2017-11-23T19:11:22.620Z,100138.78
2017-11-23T19:13:54.549Z,100140.35
2017-11-23T19:16:27.016Z,100154.83
2017-11-23T19:18:58.708Z,100156.16
2017-11-23T19:21:30.254Z,100152.31
2017-11-23T19:24:05.814Z,100149.97
2017-11-23T19:26:38.517Z,100150.56
2017-11-23T19:29:11.681Z,100152.23
2017-11-23T19:31:44.110Z,100149.89
2017-11-23T19:34:21.929Z,100153.46
2017-11-23T19:36:54.402Z,100157.71
2017-11-23T19:39:37.733Z,100158.48
2017-11-23T19:42:16.340Z,100158.91
2017-11-23T19:44:48.979Z,100158.23
2017-11-23T19:47:22.210Z,100162.06
2017-11-23T19:49:53.583Z,100158.27
2017-11-23T19:52:24.942Z,100169.80
2017-11-23T19:54:56.394Z,100164.09
2017-11-23T19:57:27.775Z,100158.20
2017-11-23T19:59:59.145Z,100162.23
2017-11-23T20:02:32.214Z,100156.11
2017-11-23T20:05:03.784Z,100167.30
2017-11-23T20:07:35.151Z,100172.64
2017-11-23T20:10:11.712Z,100170.47
2017-11-23T20:12:43.022Z,100175.46
2017-11-23T20:15:14.527Z,100168.42
2017-11-23T20:17:46.845Z,100162.92
2017-11-23T20:23:04.002Z,100167.34
2017-11-23T20:25:36.058Z,100158.13
2017-11-23T20:28:22.566Z,100158.63
2017-11-23T20:30:56.414Z,100164.66
2017-11-23T20:33:28.139Z,100169.87
2017-11-23T20:36:05.630Z,100173.66
2017-11-23T20:38:37.874Z,100165.97
2017-11-23T20:41:10.056Z,100169.63
2017-11-23T20:43:41.698Z,100169.63
2017-11-23T20:46:18.327Z,100173.72
2017-11-23T20:48:50.119Z,100180.39
2017-11-23T20:51:25.168Z,100174.84
2017-11-23T20:53:56.560Z,100175.35
2017-11-23T20:56:29.495Z,100178.77
2017-11-23T20:59:03.064Z,100173.89
2017-11-23T21:01:34.843Z,100172.57
2017-11-23T21:04:09.013Z,100172.89
2017-11-23T21:06:43.700Z,100174.09
2017-11-23T21:09:15.833Z,100176.56
2017-11-23T21:11:49.222Z,100178.66
2017-11-23T21:14:21.385Z,100187.92
2017-11-23T21:16:52.742Z,100185.80
2017-11-23T21:19:25.638Z,100185.87
2017-11-23T21:21:58.302Z,100192.41
2017-11-23T21:24:29.673Z,100188.99
2017-11-23T21:27:01.769Z,100191.47
2017-11-23T21:29:34.546Z,100193.91
2017-11-23T21:32:11.916Z,100200.65
2017-11-23T21:34:44.520Z,100201.97
2017-11-23T21:37:16.144Z,100194.33
2017-11-23T21:39:48.507Z,100198.00
2017-11-23T21:42:20.891Z,100196.30
2017-11-23T21:44:53.563Z,100203.00
2017-11-23T21:49:50.065Z,100210.38
2017-11-23T21:52:21.683Z,100223.95
2017-11-23T21:55:03.354Z,100215.80
2017-11-23T21:57:34.734Z,100216.13
2017-11-23T22:00:21.216Z,100223.09
2017-11-23T22:02:53.559Z,100220.48
2017-11-23T22:05:25.213Z,100212.53
2017-11-23T22:07:56.620Z,100213.05
2017-11-23T22:10:30.114Z,100210.56
2017-11-23T22:13:02.695Z,100213.16
2017-11-23T22:15:34.411Z,100212.77
2017-11-23T22:18:12.149Z,100216.56
2017-11-23T22:20:43.596Z,100220.39
2017-11-23T22:23:18.692Z,100217.41
2017-11-23T22:25:50.793Z,100213.83
2017-11-23T22:28:24.195Z,100213.28
2017-11-23T22:30:56.745Z,100220.02
2017-11-23T22:33:28.612Z,100222.23
2017-11-23T22:36:00.367Z,100220.81
2017-11-23T22:38:33.116Z,100220.33
2017-11-23T22:44:06.757Z,100225.16
2017-11-23T22:46:38.820Z,100219.69
2017-11-23T22:49:15.163Z,100215.03
2017-11-23T22:51:52.366Z,100210.91
2017-11-23T22:54:25.638Z,100209.70
2017-11-23T22:56:58.818Z,100213.49
2017-11-23T22:59:31.729Z,100213.62
2017-11-23T23:02:07.115Z,100209.22
2017-11-23T23:04:38.588Z,100217.75
2017-11-23T23:07:10.531Z,100225.42
2017-11-23T23:09:43.764Z,100224.48
2017-11-23T23:12:16.462Z,100222.38
2017-11-23T23:14:49.026Z,100220.23
2017-11-23T23:17:22.109Z,100220.02
2017-11-23T23:19:54.484Z,100219.59
2017-11-23T23:22:26.792Z,100225.00
2017-11-23T23:24:58.369Z,100219.59
2017-11-23T23:27:29.787Z,100218.95
2017-11-23T23:30:04.174Z,100224.58
2017-11-23T23:32:36.157Z,100221.34
2017-11-23T23:35:16.692Z,100225.52
2017-11-23T23:37:48.457Z,100224.20
2017-11-23T23:40:22.666Z,100220.52
2017-11-23T23:42:54.360Z,100220.19
2017-11-23T23:45:28.688Z,100215.58
2017-11-23T23:48:00.911Z,100208.70
2017-11-23T23:50:33.737Z,100211.91
2017-11-23T23:53:07.034Z,100212.37
2017-11-23T23:55:49.225Z,100198.16
2017-11-23T23:58:23.428Z,100201.08
